createdAt,value
2017-12-04T00:08:18.332Z,1.99
2017-12-04T00:28:50.528Z,1.96
2017-12-04T00:49:28.122Z,1.91
2017-12-04T01:10:02.476Z,1.90
2017-12-04T01:30:34.983Z,1.90
2017-12-04T01:51:10.251Z,1.89
2017-12-04T02:11:46.165Z,1.95
2017-12-04T02:32:24.116Z,1.99
2017-12-04T02:52:57.910Z,2.01
2017-12-04T03:13:31.033Z,2.06
2017-12-04T03:34:08.147Z,2.23
2017-12-04T03:54:41.575Z,2.13
2017-12-04T04:15:17.768Z,2.13
2017-12-04T04:35:53.967Z,1.91
2017-12-04T04:56:26.163Z,1.97
2017-12-04T05:34:59.110Z,2.08
2017-12-04T05:55:34.625Z,2.21
2017-12-04T06:16:08.421Z,2.10
2017-12-04T06:36:44.270Z,2.23
2017-12-04T06:57:18.296Z,2.09
2017-12-04T07:17:50.245Z,2.37
2017-12-04T07:59:09.697Z,2.53
2017-12-04T08:19:45.282Z,2.60
2017-12-04T08:40:16.247Z,2.84
2017-12-04T09:00:50.285Z,2.96
2017-12-04T09:21:27.715Z,3.04
2017-12-04T09:42:02.983Z,3.02
2017-12-04T10:02:36.106Z,3.13
2017-12-04T10:23:10.457Z,3.00
2017-12-04T10:43:47.572Z,3.15
2017-12-04T11:04:24.093Z,3.21
2017-12-04T11:24:55.966Z,3.17
2017-12-04T11:45:29.394Z,3.22
2017-12-04T12:06:04.729Z,3.23
2017-12-04T12:26:37.791Z,3.40
2017-12-04T12:47:09.682Z,3.38
2017-12-04T13:07:45.261Z,3.56
2017-12-04T13:28:20.601Z,3.68
2017-12-04T13:48:56.421Z,3.89
2017-12-04T14:09:30.766Z,4.14
2017-12-04T14:30:07.297Z,4.20
2017-12-04T14:50:42.236Z,4.36
2017-12-04T15:11:25.848Z,4.27
2017-12-04T15:32:01.691Z,4.26
2017-12-04T15:52:32.968Z,4.31
2017-12-04T16:13:06.395Z,4.37
2017-12-04T16:33:42.729Z,4.42
2017-12-04T16:54:16.636Z,3.84
2017-12-04T17:14:49.760Z,3.11
2017-12-04T17:35:22.266Z,2.93
2017-12-04T17:55:57.761Z,2.90
2017-12-04T18:16:31.577Z,3.36
2017-12-04T18:37:04.699Z,3.69
2017-12-04T18:57:39.240Z,3.81
2017-12-04T19:18:12.175Z,3.89
2017-12-04T19:38:47.456Z,3.85
2017-12-04T19:59:25.485Z,3.91
2017-12-04T20:19:58.265Z,4.00
2017-12-04T20:40:31.114Z,4.00
2017-12-04T21:01:03.316Z,4.03
2017-12-04T21:21:37.768Z,4.01
2017-12-04T21:42:08.638Z,4.04
2017-12-04T22:02:42.987Z,3.85
2017-12-04T22:23:17.395Z,3.46
2017-12-04T22:43:50.460Z,3.01
2017-12-04T23:04:20.509Z,3.01
2017-12-04T23:24:58.043Z,2.97
2017-12-04T23:45:31.974Z,3.10
